Time;durP1;ratioP1;P1;durP2;ratioP2;P2;SDS_P1;SDS_P2;PMS_P1;PMS_P2;Temp;Humidity;BMP_temperature;BMP_pressure;BME280_temperature;BME280_humidity;BME280_pressure;Samples;Min_cycle;Max_cycle;Signal;HPM_P1;HPM_P2
2021/01/28 00:00:39;;;;;;;44.55;6.40;;;11.90;99.90;;;;;;5046353;28;20048;-82
2021/01/28 00:03:07;;;;;;;45.50;6.00;;;11.90;99.90;;;;;;5041867;28;20086;-82
2021/01/28 00:05:37;;;;;;;36.77;5.70;;;11.90;99.90;;;;;;5051720;28;20566;-81
2021/01/28 00:08:05;;;;;;;45.25;5.80;;;11.90;99.90;;;;;;5052168;28;20086;-81
2021/01/28 00:10:32;;;;;;;43.15;5.47;;;11.90;99.90;;;;;;5063037;28;20055;-81
2021/01/28 00:13:00;;;;;;;42.00;7.05;;;11.90;99.90;;;;;;5050072;28;20119;-81
2021/01/28 00:15:30;;;;;;;44.95;6.38;;;12.00;99.90;;;;;;5054889;28;20060;-81
2021/01/28 00:17:58;;;;;;;50.70;6.82;;;12.00;99.90;;;;;;5057457;28;20422;-81
2021/01/28 00:20:32;;;;;;;60.78;7.43;;;11.90;99.90;;;;;;5067098;28;20064;-82
2021/01/28 00:22:59;;;;;;;84.32;8.02;;;12.00;99.90;;;;;;5049838;28;20071;-82
2021/01/28 00:25:26;;;;;;;106.90;9.90;;;12.00;99.90;;;;;;5044605;28;20037;-82
2021/01/28 00:27:53;;;;;;;109.32;10.40;;;11.90;99.90;;;;;;5048278;28;20045;-82
2021/01/28 00:30:44;;;;;;;116.25;10.38;;;12.00;99.90;;;;;;5048504;28;20052;-81
2021/01/28 00:33:16;;;;;;;159.90;12.32;;;12.00;99.90;;;;;;5047329;28;20456;-82
2021/01/28 00:35:44;;;;;;;135.45;12.55;;;12.00;99.90;;;;;;5049366;28;20486;-81
2021/01/28 00:38:16;;;;;;;138.77;12.80;;;12.00;99.90;;;;;;5057095;28;20044;-81
2021/01/28 00:40:42;;;;;;;143.57;12.90;;;12.00;99.90;;;;;;5066537;28;20367;-82
2021/01/28 00:43:10;;;;;;;160.10;12.82;;;12.00;99.90;;;;;;5031343;28;20147;-82
2021/01/28 00:45:37;;;;;;;127.70;12.43;;;11.90;99.90;;;;;;5053085;28;20322;-82
2021/01/28 00:48:04;;;;;;;147.00;13.48;;;12.00;99.90;;;;;;5041359;28;20142;-81
2021/01/28 00:50:33;;;;;;;146.80;13.63;;;12.00;99.90;;;;;;5055387;28;20482;-82
2021/01/28 00:53:00;;;;;;;133.10;12.57;;;12.00;99.90;;;;;;5069121;28;20390;-81
2021/01/28 00:55:26;;;;;;;113.13;12.35;;;12.00;99.90;;;;;;5049077;28;20042;-82
2021/01/28 00:57:53;;;;;;;129.55;11.80;;;12.00;99.90;;;;;;5067365;28;20496;-81
2021/01/28 01:00:33;;;;;;;132.65;12.93;;;12.00;99.90;;;;;;5049493;28;20049;-81
2021/01/28 01:03:00;;;;;;;92.90;10.98;;;12.00;99.90;;;;;;5055493;28;20045;-82
2021/01/28 01:05:30;;;;;;;122.03;12.27;;;12.00;99.90;;;;;;5071327;28;20052;-81
2021/01/28 01:07:58;;;;;;;135.55;12.25;;;12.00;99.90;;;;;;5041864;28;20383;-82
2021/01/28 01:10:46;;;;;;;123.90;11.95;;;12.00;99.90;;;;;;5033497;28;20132;-82
2021/01/28 01:13:18;;;;;;;130.63;12.80;;;12.00;99.90;;;;;;5040115;28;20359;-82
2021/01/28 01:15:45;;;;;;;137.80;11.52;;;12.00;99.90;;;;;;5040591;28;20048;-81
2021/01/28 01:18:14;;;;;;;103.80;10.93;;;12.00;99.90;;;;;;5046493;28;20052;-81
2021/01/28 01:20:41;;;;;;;112.10;11.98;;;12.00;99.90;;;;;;5062164;28;20041;-81
2021/01/28 01:23:08;;;;;;;112.53;13.15;;;12.00;99.90;;;;;;5040149;28;20136;-82
2021/01/28 01:25:35;;;;;;;106.75;13.73;;;12.00;99.90;;;;;;5048976;28;20040;-82
2021/01/28 01:28:03;;;;;;;100.65;12.73;;;12.00;99.90;;;;;;5045572;28;20049;-82
2021/01/28 01:30:30;;;;;;;70.55;10.40;;;12.00;99.90;;;;;;5049205;28;20132;-82
2021/01/28 01:32:57;;;;;;;45.92;6.60;;;12.00;99.90;;;;;;5041347;28;20105;-82
2021/01/28 01:35:24;;;;;;;48.60;7.20;;;12.00;99.90;;;;;;5049805;28;20057;-82
2021/01/28 01:37:53;;;;;;;30.25;5.15;;;12.00;99.90;;;;;;5051802;28;20033;-82
2021/01/28 01:40:41;;;;;;;14.52;3.28;;;12.00;99.90;;;;;;5050460;28;20048;-82
2021/01/28 01:43:09;;;;;;;17.95;3.13;;;12.00;99.90;;;;;;5042724;28;20052;-82
2021/01/28 01:45:44;;;;;;;;;;;12.00;99.90;;;;;;5059803;28;20059;-82
2021/01/28 01:48:19;;;;;;;11.48;1.90;;;12.00;99.90;;;;;;5060177;28;20036;-81
2021/01/28 01:51:04;;;;;;;10.00;1.70;;;12.00;99.90;;;;;;5076575;28;20052;-82
2021/01/28 01:53:33;;;;;;;10.77;1.85;;;12.00;99.90;;;;;;5066916;28;20060;-82
2021/01/28 01:56:10;;;;;;;6.75;1.48;;;12.00;99.90;;;;;;5069001;28;20045;-82
2021/01/28 01:59:11;;;;;;;6.25;1.45;;;12.00;99.90;;;;;;5045804;28;20083;-82
2021/01/28 02:01:55;;;;;;;6.85;1.20;;;12.00;99.90;;;;;;5031596;28;20143;-82
2021/01/28 02:04:23;;;;;;;7.07;1.17;;;12.00;99.90;;;;;;5064506;28;29804;-82
2021/01/28 02:06:54;;;;;;;6.13;1.10;;;12.00;99.90;;;;;;5041389;28;20099;-82
2021/01/28 02:09:21;;;;;;;5.45;1.38;;;12.00;99.90;;;;;;5066379;28;20044;-82
2021/01/28 02:11:48;;;;;;;6.10;1.50;;;12.00;99.90;;;;;;5051012;28;20052;-82
2021/01/28 02:14:16;;;;;;;7.57;1.35;;;12.00;99.90;;;;;;5060054;28;20051;-82
2021/01/28 02:16:50;;;;;;;5.05;1.17;;;12.00;99.90;;;;;;5065972;28;20041;-82
2021/01/28 02:19:25;;;;;;;15.45;2.00;;;12.00;99.90;;;;;;5068436;28;20056;-82
2021/01/28 02:21:52;;;;;;;11.95;2.75;;;12.10;99.90;;;;;;5061386;28;20052;-82
2021/01/28 02:24:48;;;;;;;18.25;3.10;;;12.10;99.90;;;;;;5067082;28;20120;-82
2021/01/28 02:27:15;;;;;;;22.15;3.50;;;12.10;99.90;;;;;;5049803;28;20053;-82
2021/01/28 02:29:41;;;;;;;14.20;2.70;;;12.10;99.90;;;;;;5066026;28;20040;-81
2021/01/28 02:32:08;;;;;;;21.95;3.55;;;12.10;99.90;;;;;;5058599;28;20041;-81
2021/01/28 02:34:36;;;;;;;16.23;3.33;;;12.10;99.90;;;;;;5067204;28;20382;-82
2021/01/28 02:37:17;;;;;;;19.70;3.30;;;12.10;99.90;;;;;;5052650;28;20068;-81
2021/01/28 02:39:43;;;;;;;21.27;3.70;;;12.10;99.90;;;;;;5038705;28;20041;-81
2021/01/28 02:42:13;;;;;;;20.15;3.40;;;12.10;99.90;;;;;;5045949;28;20053;-82
2021/01/28 02:44:40;;;;;;;17.60;3.17;;;12.10;99.90;;;;;;5037266;28;20439;-82
2021/01/28 02:47:06;;;;;;;27.13;4.93;;;12.10;99.90;;;;;;5011872;28;20065;-82
2021/01/28 02:49:33;;;;;;;33.13;4.82;;;12.10;99.90;;;;;;5050715;28;20059;-82
2021/01/28 02:51:59;;;;;;;36.75;5.88;;;12.10;99.90;;;;;;5060864;28;20049;-82
2021/01/28 02:54:26;;;;;;;34.65;5.10;;;12.10;99.90;;;;;;5056537;28;20490;-81
2021/01/28 02:56:52;;;;;;;44.17;6.30;;;12.10;99.90;;;;;;5048887;28;20052;-81
2021/01/28 02:59:19;;;;;;;41.53;6.22;;;12.10;99.90;;;;;;5062866;28;20091;-81
2021/01/28 03:01:45;;;;;;;50.50;7.85;;;12.10;99.90;;;;;;5055964;28;20482;-81
2021/01/28 03:04:12;;;;;;;59.90;8.55;;;12.10;99.90;;;;;;5033265;28;20044;-82
2021/01/28 03:06:38;;;;;;;66.57;10.30;;;12.10;99.90;;;;;;5050824;28;20086;-82
2021/01/28 03:09:06;;;;;;;89.00;12.50;;;12.10;99.90;;;;;;5067468;28;20044;-81
2021/01/28 03:11:34;;;;;;;82.03;12.25;;;12.10;99.90;;;;;;5045726;28;20470;-81
2021/01/28 03:14:01;;;;;;;82.20;12.77;;;12.10;99.90;;;;;;5056281;28;20048;-81
2021/01/28 03:16:27;;;;;;;95.13;12.00;;;12.10;99.90;;;;;;5066051;28;20478;-81
2021/01/28 03:18:54;;;;;;;89.75;12.05;;;12.10;99.90;;;;;;5038632;28;20041;-81
2021/01/28 03:21:20;;;;;;;72.28;8.65;;;12.10;99.90;;;;;;5069567;28;20086;-81
2021/01/28 03:23:47;;;;;;;74.43;9.57;;;12.10;99.90;;;;;;5019055;28;20059;-81
2021/01/28 03:26:13;;;;;;;78.15;9.63;;;12.10;99.90;;;;;;5054321;28;20037;-81
2021/01/28 03:28:40;;;;;;;80.97;9.63;;;12.10;99.90;;;;;;5063906;28;20051;-81
2021/01/28 03:31:06;;;;;;;74.13;8.70;;;12.10;99.90;;;;;;5042324;28;20467;-81
2021/01/28 03:33:32;;;;;;;80.47;10.02;;;12.10;99.90;;;;;;5052661;28;20048;-81
2021/01/28 03:35:59;;;;;;;82.35;10.00;;;12.10;99.90;;;;;;5050242;28;20561;-81
2021/01/28 03:38:29;;;;;;;78.18;10.05;;;12.10;99.90;;;;;;5030459;28;20363;-82
2021/01/28 03:40:55;;;;;;;66.75;8.43;;;12.20;99.90;;;;;;5064673;28;20056;-82
2021/01/28 03:43:22;;;;;;;66.82;8.60;;;12.10;99.90;;;;;;5064067;28;20106;-81
2021/01/28 03:45:48;;;;;;;65.25;8.32;;;12.20;99.90;;;;;;5061521;28;20063;-81
2021/01/28 03:48:14;;;;;;;76.50;8.43;;;12.20;99.90;;;;;;5054872;28;20048;-81
2021/01/28 03:50:41;;;;;;;59.90;7.70;;;12.20;99.90;;;;;;5064793;28;20101;-81
2021/01/28 03:53:07;;;;;;;67.55;8.07;;;12.20;99.90;;;;;;5059837;28;20450;-81
2021/01/28 03:55:34;;;;;;;46.80;6.68;;;12.20;99.90;;;;;;5043163;28;20098;-82
2021/01/28 03:58:01;;;;;;;39.63;5.68;;;12.20;99.90;;;;;;5046665;28;20123;-82
2021/01/28 04:00:33;;;;;;;39.40;5.10;;;12.20;99.90;;;;;;5038043;28;20386;-81
2021/01/28 04:03:01;;;;;;;30.25;4.30;;;12.20;99.90;;;;;;5061784;28;20033;-82
2021/01/28 04:05:28;;;;;;;30.15;3.97;;;12.20;99.90;;;;;;5064555;28;20379;-81
2021/01/28 04:07:55;;;;;;;19.83;3.03;;;12.20;99.90;;;;;;5048001;28;20093;-81
2021/01/28 04:10:32;;;;;;;14.48;2.55;;;12.20;99.90;;;;;;5061902;28;20478;-82
2021/01/28 04:12:58;;;;;;;13.63;2.08;;;12.20;99.90;;;;;;5049475;28;20040;-81
2021/01/28 04:15:25;;;;;;;10.00;1.60;;;12.20;99.90;;;;;;5049243;28;20548;-81
2021/01/28 04:17:52;;;;;;;15.30;2.33;;;12.20;99.90;;;;;;5063950;28;20053;-81
2021/01/28 04:20:28;;;;;;;15.40;2.65;;;12.10;99.90;;;;;;5067033;28;20040;-81
2021/01/28 04:22:56;;;;;;;17.33;3.38;;;12.20;99.90;;;;;;5058395;28;20429;-81
2021/01/28 04:25:23;;;;;;;31.30;4.33;;;12.20;99.90;;;;;;5064254;28;20044;-82
2021/01/28 04:27:50;;;;;;;34.85;5.07;;;12.20;99.90;;;;;;5065224;28;20299;-81
2021/01/28 04:30:27;;;;;;;63.90;6.18;;;12.20;99.90;;;;;;5058847;28;20092;-81
2021/01/28 04:32:54;;;;;;;40.83;5.85;;;12.20;99.90;;;;;;5047288;28;20038;-81
2021/01/28 04:35:21;;;;;;;31.83;4.50;;;12.20;99.90;;;;;;5049771;28;20055;-81
2021/01/28 04:37:48;;;;;;;27.73;4.35;;;12.20;99.90;;;;;;5051539;28;20052;-82
2021/01/28 04:40:37;;;;;;;24.30;4.13;;;12.20;99.90;;;;;;5063602;28;20060;-81
2021/01/28 04:43:19;;;;;;;23.00;3.22;;;12.20;99.90;;;;;;5020379;28;20107;-81
2021/01/28 04:45:46;;;;;;;17.80;2.95;;;12.20;99.90;;;;;;5045581;28;20049;-81
2021/01/28 04:48:13;;;;;;;18.25;1.88;;;12.20;99.90;;;;;;5051825;28;20485;-81
2021/01/28 04:50:42;;;;;;;10.55;1.92;;;12.20;99.90;;;;;;5052181;28;20041;-82
2021/01/28 04:53:20;;;;;;;12.55;2.17;;;12.20;99.90;;;;;;5068349;28;20045;-81
2021/01/28 04:55:51;;;;;;;14.02;2.08;;;12.20;99.90;;;;;;5048993;28;20502;-81
2021/01/28 04:58:18;;;;;;;23.52;3.13;;;12.20;99.90;;;;;;5067061;28;20528;-81
2021/01/28 05:00:45;;;;;;;24.20;3.05;;;12.20;99.90;;;;;;5029770;28;20045;-81
2021/01/28 05:03:26;;;;;;;27.13;3.22;;;12.20;99.90;;;;;;5046351;28;20052;-82
2021/01/28 05:05:55;;;;;;;28.25;3.55;;;12.20;99.90;;;;;;5032936;28;20049;-81
2021/01/28 05:08:23;;;;;;;20.88;3.53;;;12.20;99.90;;;;;;5043902;28;20103;-82
2021/01/28 05:10:54;;;;;;;10.63;2.90;;;12.20;99.90;;;;;;5044732;28;20041;-81
2021/01/28 05:13:38;;;;;;;14.05;2.20;;;12.20;99.90;;;;;;5042895;28;20044;-82
2021/01/28 05:16:29;;;;;;;15.82;2.42;;;12.30;99.90;;;;;;5040164;28;20095;-81
2021/01/28 05:19:01;;;;;;;15.73;2.40;;;12.20;99.90;;;;;;5039886;28;20450;-81
2021/01/28 05:21:55;;;;;;;15.55;2.70;;;12.20;99.90;;;;;;5045116;28;20037;-81
2021/01/28 05:24:30;;;;;;;23.98;2.95;;;12.20;99.90;;;;;;5057468;28;20111;-81
2021/01/28 05:27:26;;;;;;;35.20;3.92;;;12.20;99.90;;;;;;5041721;28;20414;-81
2021/01/28 05:29:55;;;;;;;35.45;4.15;;;12.20;99.90;;;;;;5040901;28;20549;-81
2021/01/28 05:32:36;;;;;;;33.92;3.67;;;12.20;99.90;;;;;;5044569;28;20053;-82
2021/01/28 05:35:28;;;;;;;63.72;4.13;;;12.20;99.90;;;;;;5041055;28;20077;-81
2021/01/28 05:38:25;;;;;;;80.28;5.20;;;12.20;99.90;;;;;;5050666;28;20102;-81
2021/01/28 05:40:57;;;;;;;82.32;5.30;;;12.20;99.90;;;;;;5066105;28;20091;-81
2021/01/28 05:43:34;;;;;;;111.40;5.78;;;12.10;99.90;;;;;;5047416;28;20193;-82
2021/01/28 05:46:21;;;;;;;43.70;4.20;;;12.10;99.90;;;;;;5049136;28;20128;-81
2021/01/28 05:49:17;;;;;;;45.42;4.72;;;12.10;99.90;;;;;;5043841;28;20049;-81
2021/01/28 05:51:45;;;;;;;58.45;5.00;;;12.10;99.90;;;;;;5066342;28;20106;-81
2021/01/28 05:54:19;;;;;;;35.67;4.60;;;12.10;99.90;;;;;;5046481;28;20052;-81
2021/01/28 05:57:09;;;;;;;41.55;4.78;;;12.10;99.90;;;;;;5069286;28;20036;-81
2021/01/28 05:59:47;;;;;;;39.60;5.70;;;12.10;99.90;;;;;;5061314;28;20055;-82
2021/01/28 06:02:40;;;;;;;64.18;5.28;;;12.10;99.90;;;;;;5082329;28;20053;-81
2021/01/28 06:05:07;;;;;;;45.10;5.07;;;12.10;99.90;;;;;;5061551;28;20552;-81
2021/01/28 06:07:33;;;;;;;38.53;5.57;;;12.10;99.90;;;;;;5058713;28;20099;-82
2021/01/28 06:10:18;;;;;;;43.00;5.43;;;12.10;99.90;;;;;;5055333;28;20045;-81
2021/01/28 06:13:08;;;;;;;27.60;4.05;;;12.10;99.90;;;;;;5066944;28;20040;-82
2021/01/28 06:15:46;;;;;;;21.30;3.40;;;12.10;99.90;;;;;;5067329;28;20057;-82
2021/01/28 06:18:48;;;;;;;20.75;2.92;;;12.10;99.90;;;;;;5055695;28;20109;-81
2021/01/28 06:21:38;;;;;;;26.10;3.97;;;12.10;99.90;;;;;;5047236;28;20048;-80
2021/01/28 06:24:22;;;;;;;46.10;5.40;;;12.10;99.90;;;;;;5061457;28;20056;-80
2021/01/28 06:27:10;;;;;;;57.38;6.50;;;12.20;99.90;;;;;;5053351;28;20530;-81
2021/01/28 06:29:54;;;;;;;57.80;7.85;;;12.10;99.90;;;;;;5064584;28;20082;-81
2021/01/28 06:32:23;;;;;;;30.10;5.93;;;12.10;99.90;;;;;;5050922;28;20037;-81
2021/01/28 06:35:01;;;;;;;33.85;5.60;;;12.10;99.90;;;;;;5063377;28;20100;-83
2021/01/28 06:37:30;;;;;;;25.17;4.88;;;12.10;99.90;;;;;;5059426;28;20110;-81
2021/01/28 06:39:57;;;;;;;38.60;5.47;;;12.10;99.90;;;;;;5054496;28;20048;-81
2021/01/28 06:42:39;;;;;;;29.75;5.10;;;12.10;99.90;;;;;;5047042;28;20055;-81
2021/01/28 06:45:28;;;;;;;40.45;6.03;;;12.10;99.90;;;;;;5065609;28;20493;-82
2021/01/28 06:48:15;;;;;;;37.05;5.30;;;12.10;99.90;;;;;;5065965;28;20071;-82
2021/01/28 06:51:06;;;;;;;32.00;4.25;;;12.10;99.90;;;;;;5065974;28;20491;-81
2021/01/28 06:53:44;;;;;;;20.27;3.80;;;12.10;99.90;;;;;;5052708;28;20433;-81
2021/01/28 06:56:43;;;;;;;26.10;4.27;;;12.10;99.90;;;;;;5034813;28;20040;-81
2021/01/28 06:59:36;;;;;;;36.47;5.60;;;12.10;99.90;;;;;;4996828;28;20133;-82
2021/01/28 07:02:08;;;;;;;47.15;6.28;;;12.10;99.90;;;;;;5001970;28;20046;-82
2021/01/28 07:04:48;;;;;;;55.38;7.03;;;12.10;99.90;;;;;;4997616;28;20050;-81
2021/01/28 07:07:25;;;;;;;75.38;8.73;;;12.10;99.90;;;;;;4969559;28;20038;-82
2021/01/28 07:09:52;;;;;;;84.32;10.52;;;12.10;99.90;;;;;;4965719;28;20055;-82
2021/01/28 07:12:30;;;;;;;90.13;10.05;;;12.10;99.90;;;;;;4989282;28;20054;-81
2021/01/28 07:14:56;;;;;;;72.85;9.95;;;12.20;99.90;;;;;;4979873;28;20400;-80
2021/01/28 07:17:31;;;;;;;85.25;9.73;;;12.10;99.90;;;;;;5000953;28;20054;-81
2021/01/28 07:20:08;;;;;;;71.22;10.23;;;12.10;99.90;;;;;;5007145;28;20500;-81
2021/01/28 07:22:42;;;;;;;80.75;9.88;;;12.10;99.90;;;;;;5001129;28;20054;-81
2021/01/28 07:25:35;;;;;;;67.28;9.93;;;12.10;99.90;;;;;;4986184;28;20093;-81
2021/01/28 07:28:11;;;;;;;72.60;9.73;;;12.10;99.90;;;;;;4991149;28;20066;-81
2021/01/28 07:30:45;;;;;;;60.22;8.55;;;12.10;99.90;;;;;;5005444;28;20088;-81
2021/01/28 07:33:24;;;;;;;73.57;9.30;;;12.10;99.90;;;;;;5004790;28;20081;-81
2021/01/28 07:36:01;;;;;;;72.57;8.82;;;12.10;99.90;;;;;;5027264;28;20513;-81
2021/01/28 07:38:30;;;;;;;86.80;9.82;;;12.10;99.90;;;;;;5043871;28;20384;-81
2021/01/28 07:40:59;;;;;;;66.20;8.93;;;12.10;99.90;;;;;;5064581;28;20044;-81
2021/01/28 07:43:31;;;;;;;94.32;10.68;;;12.10;99.90;;;;;;5061664;28;20052;-81
2021/01/28 07:46:19;;;;;;;92.50;10.45;;;12.10;99.90;;;;;;5056311;28;20076;-81
2021/01/28 07:49:03;;;;;;;65.25;8.93;;;12.10;99.90;;;;;;5076740;28;20400;-80
2021/01/28 07:51:39;;;;;;;67.50;8.85;;;12.10;99.90;;;;;;5073877;28;20509;-81
2021/01/28 07:54:29;;;;;;;50.72;7.70;;;12.10;99.90;;;;;;5047245;28;20509;-81
2021/01/28 07:57:06;;;;;;;29.23;4.72;;;12.10;99.90;;;;;;5057715;28;20489;-81
2021/01/28 07:59:49;;;;;;;34.53;4.82;;;12.10;99.90;;;;;;5069762;28;20044;-81
2021/01/28 08:02:18;;;;;;;54.60;6.60;;;12.10;99.90;;;;;;5073637;28;20062;-81
2021/01/28 08:04:48;;;;;;;52.00;6.65;;;12.10;99.90;;;;;;5054847;28;20082;-81
2021/01/28 08:07:24;;;;;;;64.90;7.85;;;12.10;99.90;;;;;;5069415;28;20089;-80
2021/01/28 08:09:57;;;;;;;72.45;7.65;;;12.10;99.90;;;;;;5057051;28;20045;-81
2021/01/28 08:12:56;;;;;;;93.15;9.60;;;12.10;99.90;;;;;;5058867;28;20040;-81
2021/01/28 08:16:10;;;;;;;113.40;9.95;;;12.10;99.90;;;;;;5038739;28;20041;-80
2021/01/28 08:18:43;;;;;;;90.03;9.15;;;12.10;99.90;;;;;;5054809;28;20049;-81
2021/01/28 08:21:20;;;;;;;76.35;9.20;;;12.10;99.90;;;;;;5041520;28;20076;-81
2021/01/28 08:23:48;;;;;;;66.47;8.23;;;12.10;99.90;;;;;;5056423;28;20048;-81
2021/01/28 08:26:27;;;;;;;83.30;9.45;;;12.10;99.90;;;;;;5039871;28;20052;-81
2021/01/28 08:29:17;;;;;;;55.15;7.80;;;12.10;99.90;;;;;;5055129;28;20378;-81
2021/01/28 08:31:48;;;;;;;58.78;6.72;;;12.10;99.90;;;;;;5050359;28;20114;-81
2021/01/28 08:34:41;;;;;;;66.25;7.60;;;12.10;99.90;;;;;;5041948;28;20462;-81
2021/01/28 08:37:16;;;;;;;55.53;6.70;;;12.20;99.90;;;;;;5050348;28;20130;-81
2021/01/28 08:39:52;;;;;;;47.60;6.78;;;12.10;99.90;;;;;;5044497;28;20102;-81
2021/01/28 08:42:21;;;;;;;43.40;6.32;;;12.20;99.90;;;;;;5054466;28;20037;-81
2021/01/28 08:44:50;;;;;;;58.10;5.38;;;12.10;99.90;;;;;;5040344;28;20057;-80
2021/01/28 08:47:22;;;;;;;52.38;5.38;;;12.20;99.90;;;;;;5042960;28;20462;-81
2021/01/28 08:50:03;;;;;;;31.40;4.68;;;12.20;99.90;;;;;;5037823;28;20063;-81
2021/01/28 08:52:30;;;;;;;43.22;4.70;;;12.20;99.90;;;;;;5054629;28;20052;-81
2021/01/28 08:54:57;;;;;;;59.78;5.70;;;12.20;99.90;;;;;;5044488;28;20049;-81
2021/01/28 08:57:25;;;;;;;42.38;4.65;;;12.20;99.90;;;;;;5056676;28;20044;-81
2021/01/28 08:59:58;;;;;;;23.08;4.00;;;12.20;99.90;;;;;;5041211;28;20121;-81
2021/01/28 09:02:30;;;;;;;25.77;4.25;;;12.20;99.90;;;;;;5027324;28;20374;-81
2021/01/28 09:05:04;;;;;;;33.92;4.60;;;12.20;99.90;;;;;;5040914;28;20036;-81
2021/01/28 09:07:55;;;;;;;39.00;4.75;;;12.30;99.90;;;;;;5031974;28;20064;-81
2021/01/28 09:10:31;;;;;;;28.05;3.83;;;12.20;99.90;;;;;;5024267;28;20056;-81
2021/01/28 09:13:10;;;;;;;21.35;3.10;;;12.30;99.90;;;;;;5036663;28;20059;-81
2021/01/28 09:15:36;;;;;;;20.50;3.25;;;12.30;99.90;;;;;;5037568;28;20470;-81
2021/01/28 09:18:06;;;;;;;23.70;3.50;;;12.30;99.90;;;;;;5036849;28;20075;-81
2021/01/28 09:20:36;;;;;;;42.00;5.05;;;12.30;99.90;;;;;;5040763;28;20129;-81
2021/01/28 09:23:11;;;;;;;58.58;5.47;;;12.30;99.90;;;;;;5041507;28;20057;-81
2021/01/28 09:25:39;;;;;;;38.88;5.03;;;12.30;99.90;;;;;;5031031;28;20095;-81
2021/01/28 09:28:13;;;;;;;62.75;5.85;;;12.40;99.90;;;;;;5034258;28;20064;-80
2021/01/28 09:30:46;;;;;;;77.72;5.85;;;12.40;99.90;;;;;;5057757;28;20041;-81
2021/01/28 09:33:36;;;;;;;82.40;6.00;;;12.40;99.90;;;;;;5048247;28;20453;-81
2021/01/28 09:36:29;;;;;;;63.55;6.28;;;12.40;99.90;;;;;;5052566;28;20065;-81
2021/01/28 09:39:13;;;;;;;38.30;5.32;;;12.40;99.90;;;;;;5054586;28;20040;-81
2021/01/28 09:41:44;;;;;;;33.78;5.15;;;12.40;99.90;;;;;;5026664;28;20433;-81
2021/01/28 09:44:51;;;;;;;22.75;3.70;;;12.40;99.90;;;;;;5055925;28;20048;-81
2021/01/28 09:47:20;;;;;;;62.10;6.03;;;12.40;99.90;;;;;;5035651;28;20529;-81
2021/01/28 09:49:51;;;;;;;43.63;6.18;;;12.40;99.90;;;;;;5056625;28;20363;-81
2021/01/28 09:52:30;;;;;;;63.03;6.22;;;12.40;99.90;;;;;;5070722;28;20060;-81
2021/01/28 09:54:58;;;;;;;;;;;12.40;99.90;;;;;;5056902;28;20053;-81
2021/01/28 09:57:25;;;;;;;77.43;8.07;;;12.40;99.90;;;;;;5061246;28;20335;-81
2021/01/28 09:59:57;;;;;;;104.70;9.55;;;12.40;99.90;;;;;;5055841;28;20048;-80
2021/01/28 10:02:49;;;;;;;76.43;8.10;;;12.40;99.90;;;;;;5057072;28;20036;-81
2021/01/28 10:05:22;;;;;;;89.72;9.57;;;12.40;99.90;;;;;;5040039;28;20049;-81
2021/01/28 10:07:50;;;;;;;116.28;10.05;;;12.40;99.90;;;;;;5044837;28;20045;-81
2021/01/28 10:10:18;;;;;;;107.43;10.18;;;12.40;99.90;;;;;;5041138;28;20493;-81
2021/01/28 10:12:46;;;;;;;108.55;10.13;;;12.40;99.90;;;;;;5044655;28;20056;-81
2021/01/28 10:15:13;;;;;;;86.03;9.65;;;12.40;99.90;;;;;;5041242;28;20053;-81
2021/01/28 10:17:42;;;;;;;96.10;9.60;;;12.50;99.90;;;;;;5045744;28;20045;-81
2021/01/28 10:20:08;;;;;;;;;;;12.50;99.90;;;;;;5047396;28;20052;-81
2021/01/28 10:22:37;;;;;;;153.43;10.05;;;12.50;99.90;;;;;;5047498;28;20023;-81
2021/01/28 10:25:05;;;;;;;156.88;11.48;;;12.50;99.90;;;;;;5036857;28;20443;-81
2021/01/28 10:27:32;;;;;;;65.82;7.90;;;12.40;99.90;;;;;;5041847;28;20498;-81
2021/01/28 10:29:58;;;;;;;103.63;8.02;;;12.50;99.90;;;;;;5053936;28;20440;-81
2021/01/28 10:32:25;;;;;;;129.30;8.50;;;12.50;99.90;;;;;;5046711;28;20040;-81
2021/01/28 10:34:52;;;;;;;96.85;8.18;;;12.50;99.90;;;;;;5037670;28;20056;-81
2021/01/28 10:37:19;;;;;;;73.00;7.32;;;12.50;99.90;;;;;;5047239;28;20053;-81
2021/01/28 10:39:46;;;;;;;65.97;7.07;;;12.50;99.90;;;;;;5038292;28;20049;-81
2021/01/28 10:42:18;;;;;;;47.47;5.68;;;12.50;99.90;;;;;;5045531;28;20044;-81
2021/01/28 10:44:47;;;;;;;54.35;6.75;;;12.50;99.90;;;;;;5035137;28;20127;-81
2021/01/28 10:47:14;;;;;;;54.85;6.53;;;12.50;99.90;;;;;;5026213;28;20145;-81
2021/01/28 10:49:41;;;;;;;55.47;6.60;;;12.50;99.90;;;;;;5017989;28;20055;-81
2021/01/28 10:52:08;;;;;;;33.72;4.72;;;12.50;99.90;;;;;;5016740;28;20053;-82
2021/01/28 10:54:35;;;;;;;42.45;5.88;;;12.50;99.90;;;;;;5035868;28;20681;-82
2021/01/28 10:57:03;;;;;;;40.42;5.53;;;12.50;99.90;;;;;;5032047;28;20395;-81
2021/01/28 10:59:29;;;;;;;34.47;5.00;;;12.50;99.90;;;;;;5037744;28;20095;-81
2021/01/28 11:01:56;;;;;;;29.67;4.65;;;12.50;99.90;;;;;;5037923;28;20288;-81
2021/01/28 11:04:23;;;;;;;26.17;4.18;;;12.50;99.90;;;;;;5035549;28;20052;-81
2021/01/28 11:06:49;;;;;;;38.65;5.45;;;12.50;99.90;;;;;;5036264;28;20546;-81
2021/01/28 11:09:16;;;;;;;35.90;5.55;;;12.50;99.90;;;;;;5040654;28;20037;-81
2021/01/28 11:11:42;;;;;;;38.00;6.43;;;12.50;99.90;;;;;;5052524;28;20080;-81
2021/01/28 11:14:10;;;;;;;40.00;6.82;;;12.50;99.90;;;;;;5048895;28;20522;-81
2021/01/28 11:16:38;;;;;;;43.97;7.22;;;12.50;99.90;;;;;;5030585;28;20727;-81
2021/01/28 11:19:07;;;;;;;45.47;6.93;;;12.50;99.90;;;;;;5030383;28;20142;-81
2021/01/28 11:21:34;;;;;;;36.92;5.82;;;12.60;99.90;;;;;;5021830;28;20071;-81
2021/01/28 11:24:00;;;;;;;26.27;4.85;;;12.50;99.90;;;;;;5015552;28;20059;-81
2021/01/28 11:26:27;;;;;;;23.20;4.93;;;12.60;99.90;;;;;;5037584;28;20106;-81
2021/01/28 11:28:53;;;;;;;22.95;5.53;;;12.60;99.90;;;;;;5035527;28;20114;-81
2021/01/28 11:31:20;;;;;;;32.88;6.43;;;12.60;99.90;;;;;;5017317;28;20439;-81
2021/01/28 11:33:46;;;;;;;41.30;5.90;;;12.60;99.90;;;;;;5027361;28;20092;-81
2021/01/28 11:36:13;;;;;;;44.88;6.10;;;12.60;99.90;;;;;;5046270;28;20048;-81
2021/01/28 11:38:39;;;;;;;64.85;8.38;;;12.60;99.90;;;;;;5039805;28;20045;-81
2021/01/28 11:41:05;;;;;;;99.28;8.40;;;12.60;99.90;;;;;;5025643;28;20138;-82
2021/01/28 11:43:32;;;;;;;82.78;8.80;;;12.60;99.90;;;;;;5041987;28;20090;-81
2021/01/28 11:45:59;;;;;;;106.82;8.23;;;12.60;99.90;;;;;;5029976;28;20426;-84
2021/01/28 11:48:25;;;;;;;189.00;10.85;;;12.60;99.90;;;;;;5037983;28;20479;-81
2021/01/28 11:50:52;;;;;;;168.80;10.32;;;12.60;99.90;;;;;;5043363;28;20478;-81
2021/01/28 11:53:18;;;;;;;120.85;8.70;;;12.60;99.90;;;;;;5040038;28;20379;-81
2021/01/28 11:55:45;;;;;;;123.38;8.90;;;12.60;99.90;;;;;;5050264;28;20076;-81
2021/01/28 11:58:12;;;;;;;149.70;10.00;;;12.60;99.90;;;;;;5032351;28;20040;-81
2021/01/28 12:00:39;;;;;;;194.32;10.02;;;12.60;99.90;;;;;;5036187;28;20064;-81
2021/01/28 12:03:06;;;;;;;193.32;10.50;;;12.60;99.90;;;;;;5034240;28;20041;-82
2021/01/28 12:05:32;;;;;;;151.48;9.85;;;12.60;99.90;;;;;;5039449;28;20060;-81
2021/01/28 12:07:59;;;;;;;144.93;9.18;;;12.50;99.90;;;;;;5034090;28;20045;-81
2021/01/28 12:10:27;;;;;;;171.15;9.95;;;12.60;99.90;;;;;;5040087;28;20080;-81
2021/01/28 12:12:54;;;;;;;151.13;9.13;;;12.60;99.90;;;;;;5040504;28;20049;-81
2021/01/28 12:15:21;;;;;;;162.48;8.20;;;12.60;99.90;;;;;;5038780;28;20360;-81
2021/01/28 12:17:50;;;;;;;148.60;9.10;;;12.60;99.90;;;;;;5032345;28;20056;-81
2021/01/28 12:20:22;;;;;;;154.53;9.43;;;12.60;99.90;;;;;;5016140;28;20497;-81
2021/01/28 12:22:48;;;;;;;108.68;8.02;;;12.60;99.90;;;;;;5035914;28;20386;-81
2021/01/28 12:25:15;;;;;;;131.95;8.32;;;12.60;99.90;;;;;;5022518;28;20055;-81
2021/01/28 12:27:41;;;;;;;206.15;10.52;;;12.60;99.90;;;;;;5019120;28;20045;-81
2021/01/28 12:30:10;;;;;;;219.63;9.93;;;12.60;99.90;;;;;;5033557;28;20060;-81
2021/01/28 12:32:37;;;;;;;179.23;10.02;;;12.60;99.90;;;;;;5052971;28;20049;-81
2021/01/28 12:35:06;;;;;;;149.27;7.97;;;12.60;99.90;;;;;;5057797;28;20397;-81
2021/01/28 12:37:32;;;;;;;176.13;9.33;;;12.60;99.90;;;;;;5057539;28;20384;-81
2021/01/28 12:39:59;;;;;;;157.85;8.55;;;12.60;99.90;;;;;;5041920;28;20044;-83
2021/01/28 12:42:27;;;;;;;209.65;10.35;;;12.60;99.90;;;;;;5035646;28;20072;-81
2021/01/28 12:44:54;;;;;;;107.88;7.20;;;12.60;99.90;;;;;;5026790;28;20036;-83
2021/01/28 12:47:20;;;;;;;231.77;10.13;;;12.60;99.90;;;;;;5055345;28;20044;-81
2021/01/28 12:49:48;;;;;;;152.48;9.25;;;12.60;99.90;;;;;;5057048;28;20504;-83
2021/01/28 12:52:15;;;;;;;174.00;8.88;;;12.60;99.90;;;;;;5057357;28;20563;-80
2021/01/28 12:54:41;;;;;;;93.97;8.70;;;12.60;99.90;;;;;;5024790;28;20053;-80
2021/01/28 12:57:08;;;;;;;135.50;9.68;;;12.60;99.90;;;;;;5035683;28;20049;-81
2021/01/28 12:59:34;;;;;;;79.78;8.13;;;12.60;99.90;;;;;;5051473;28;20441;-81